CheckWX is a tool to help pilots better visualize weather data.  It is not intended as a substitute for an official pre-flight weather briefing.

21:40:10 UTC

KFFO METAR
Wright-Patterson AFB Airport
Dayton, Ohio, USA
Current

21 mins ago

KFFO 252119Z 33003KT 10SM FEW050 SCT075 SCT090 23/20 A3003 RMK AO2A SLP168
Observed
May-25 @ 21:19 UTC
Wind
  • 330° at 3 KTS
Visibility
Flight Rules
VFR
Cloud Levels
  • Few at 5,000' AGL
  • Scattered at 7,500' AGL
  • Scattered at 9,000' AGL
Temperature
23°C / 73°F
Dewpoint
20°C / 68°F
Humidity
83%
Altimeter
30.03" Hg
Pressure
1016.92 hPa
Previous

44 mins ago

KFFO 252056Z 11007KT 10SM -DZ FEW041 SCT075 BKN095 BKN110 22/20 A3005 RMK AO2A SLP175 P0003 60018 T02210204 55002
Observed
May-25 @ 20:56 UTC
Wind
  • 110° at 7 KTS
Visibility
Flight Rules
VFR
Conditions
Light Drizzle
Cloud Levels
  • Few at 4,100' AGL
  • Scattered at 7,500' AGL
  • Broken at 9,500' AGL
  • Broken at 11,000' AGL
Temperature
22°C / 72°F
Dewpoint
20°C / 68°F
Humidity
88%
Altimeter
30.05" Hg
Pressure
1017.62 hPa
Current Rain
0.03"
Previous

2 hours ago

KFFO 251956Z 19003KT 10SM -RA OVC070 23/20 A3006 RMK AO2A SLP178 P0015 T02280203
Observed
May-25 @ 19:56 UTC
Wind
  • 190° at 3 KTS
Visibility
Flight Rules
VFR
Conditions
Light Rain
Cloud Levels
  • Overcast at 7,000' AGL
Temperature
23°C / 73°F
Dewpoint
20°C / 68°F
Humidity
83%
Altimeter
30.06" Hg
Pressure
1017.92 hPa
Current Rain
0.15"